createdAt,value
2023-08-13T00:01:40.581Z,2.55
2023-08-13T00:04:07.578Z,4.07
2023-08-13T00:06:34.385Z,3.42
2023-08-13T00:09:01.302Z,5.15
2023-08-13T00:11:28.122Z,3.10
2023-08-13T00:13:54.930Z,6.32
2023-08-13T00:16:21.727Z,4.88
2023-08-13T00:18:48.531Z,3.35
2023-08-13T00:21:15.308Z,2.95
2023-08-13T00:23:42.138Z,4.15
2023-08-13T00:26:08.862Z,2.50
2023-08-13T00:28:35.662Z,3.17
2023-08-13T00:31:02.596Z,3.90
2023-08-13T00:33:29.559Z,3.08
2023-08-13T00:35:56.369Z,4.28
2023-08-13T00:38:23.183Z,5.75
2023-08-13T00:40:49.999Z,2.58
2023-08-13T00:43:16.757Z,2.72
2023-08-13T00:45:44.306Z,5.20
2023-08-13T00:48:11.286Z,6.70
2023-08-13T00:50:39.046Z,3.92
2023-08-13T00:53:07.416Z,4.10
2023-08-13T00:55:34.820Z,2.63
2023-08-13T00:58:02.488Z,5.03
2023-08-13T01:00:29.356Z,6.95
2023-08-13T01:02:57.421Z,3.25
2023-08-13T01:05:33.841Z,4.60
2023-08-13T01:08:11.933Z,3.38
2023-08-13T01:10:41.181Z,4.25
2023-08-13T01:13:32.387Z,2.35
2023-08-13T01:16:00.463Z,2.65
2023-08-13T01:18:29.324Z,2.40
2023-08-13T01:20:56.208Z,4.38
2023-08-13T01:23:22.956Z,3.75
2023-08-13T01:25:57.916Z,4.68
2023-08-13T01:28:37.775Z,9.02
2023-08-13T01:31:24.366Z,4.53
2023-08-13T01:33:53.537Z,3.70
2023-08-13T01:36:21.190Z,6.57
2023-08-13T01:38:48.502Z,2.45
2023-08-13T01:41:15.559Z,3.50
2023-08-13T01:43:42.481Z,3.38
2023-08-13T01:46:09.368Z,2.83
2023-08-13T01:48:36.494Z,5.65
2023-08-13T01:51:03.243Z,2.63
2023-08-13T01:53:30.135Z,5.38
2023-08-13T01:55:57.787Z,3.03
2023-08-13T01:58:24.622Z,7.82
2023-08-13T02:00:51.557Z,2.88
2023-08-13T02:03:18.620Z,3.50
2023-08-13T02:05:45.374Z,3.35
2023-08-13T02:08:12.262Z,2.83
2023-08-13T02:10:39.061Z,4.43
2023-08-13T02:13:07.356Z,2.92
2023-08-13T02:15:34.206Z,3.38
2023-08-13T02:18:01.268Z,2.92
2023-08-13T02:20:29.726Z,4.55
2023-08-13T02:22:57.349Z,3.28
2023-08-13T02:25:24.129Z,3.38
2023-08-13T02:27:51.108Z,6.03
2023-08-13T02:30:18.140Z,3.15
2023-08-13T02:32:44.942Z,4.10
2023-08-13T02:35:11.900Z,3.30
2023-08-13T02:37:38.813Z,5.05
2023-08-13T02:40:07.734Z,3.38
2023-08-13T02:42:34.852Z,3.87
2023-08-13T02:45:01.639Z,3.33
2023-08-13T02:47:29.767Z,4.78
2023-08-13T02:49:56.596Z,4.20
2023-08-13T02:52:23.366Z,5.60
2023-08-13T02:54:50.133Z,3.67
2023-08-13T02:57:16.899Z,5.53
2023-08-13T02:59:43.683Z,4.20
2023-08-13T03:02:10.660Z,3.65
2023-08-13T03:04:37.689Z,3.00
2023-08-13T03:07:04.483Z,3.97
2023-08-13T03:09:31.622Z,6.72
2023-08-13T03:11:58.571Z,3.40
2023-08-13T03:14:25.555Z,5.43
2023-08-13T03:16:52.601Z,4.85
2023-08-13T03:19:19.935Z,3.33
2023-08-13T03:21:46.796Z,3.90
2023-08-13T03:24:13.779Z,4.22
2023-08-13T03:26:41.818Z,5.10
2023-08-13T03:29:08.682Z,4.70
2023-08-13T03:31:35.515Z,4.00
2023-08-13T03:34:13.662Z,4.57
2023-08-13T03:36:40.764Z,4.10
2023-08-13T03:39:07.477Z,5.68
2023-08-13T03:41:34.339Z,5.90
2023-08-13T03:44:01.089Z,5.95
2023-08-13T03:46:27.837Z,3.53
2023-08-13T03:48:54.617Z,6.07
2023-08-13T03:53:52.213Z,7.40
2023-08-13T03:56:20.195Z,4.25
2023-08-13T03:58:47.035Z,4.90
2023-08-13T04:01:16.394Z,3.88
2023-08-13T04:03:45.041Z,3.13
2023-08-13T04:06:12.014Z,3.45
2023-08-13T04:08:38.908Z,4.25
2023-08-13T04:11:05.945Z,4.40
2023-08-13T04:13:33.230Z,5.40
2023-08-13T04:16:00.106Z,5.90
2023-08-13T04:18:27.765Z,3.83
2023-08-13T04:20:55.796Z,3.20
2023-08-13T04:23:22.676Z,5.40
2023-08-13T04:25:50.015Z,5.13
2023-08-13T04:28:17.074Z,3.90
2023-08-13T04:30:46.136Z,3.78
2023-08-13T04:33:12.987Z,4.03
2023-08-13T04:35:40.034Z,6.68
2023-08-13T04:38:07.326Z,4.63
2023-08-13T04:40:39.107Z,4.72
2023-08-13T04:43:06.619Z,4.45
2023-08-13T04:45:33.698Z,4.82
2023-08-13T04:48:00.619Z,5.13
2023-08-13T04:50:27.440Z,3.63
2023-08-13T04:52:54.184Z,4.93
2023-08-13T04:55:21.073Z,5.30
2023-08-13T04:57:47.864Z,3.67
2023-08-13T05:00:15.839Z,3.60
2023-08-13T05:02:45.696Z,4.47
2023-08-13T05:05:12.562Z,6.95
2023-08-13T05:07:39.771Z,5.28
2023-08-13T05:10:07.251Z,3.83
2023-08-13T05:12:34.412Z,3.97
2023-08-13T05:15:01.587Z,5.90
2023-08-13T05:17:29.189Z,5.53
2023-08-13T05:19:55.951Z,4.78
2023-08-13T05:22:22.677Z,4.55
2023-08-13T05:24:49.686Z,7.88
2023-08-13T05:27:17.793Z,5.68
2023-08-13T05:29:44.880Z,4.70
2023-08-13T05:32:11.959Z,5.07
2023-08-13T05:34:38.960Z,5.38
2023-08-13T05:37:06.816Z,4.95
2023-08-13T05:39:34.409Z,4.63
2023-08-13T05:42:01.128Z,3.22
2023-08-13T05:44:27.929Z,5.05
2023-08-13T05:46:55.346Z,4.93
2023-08-13T05:49:22.145Z,4.30
2023-08-13T05:51:49.745Z,4.10
2023-08-13T05:54:17.177Z,5.25
2023-08-13T05:56:43.989Z,3.90
2023-08-13T05:59:10.946Z,5.53
2023-08-13T06:01:37.638Z,3.88
2023-08-13T06:04:04.706Z,4.30
2023-08-13T06:06:31.768Z,4.13
2023-08-13T06:08:58.732Z,3.70
2023-08-13T06:11:25.459Z,6.57
2023-08-13T06:13:52.421Z,6.68
2023-08-13T06:16:19.445Z,3.80
2023-08-13T06:18:46.257Z,5.32
2023-08-13T06:21:13.326Z,6.13
2023-08-13T06:23:40.423Z,3.92
2023-08-13T06:26:07.819Z,3.30
2023-08-13T06:28:35.194Z,8.32
2023-08-13T06:31:03.192Z,6.63
2023-08-13T06:33:30.068Z,4.60
2023-08-13T06:35:56.868Z,3.70
2023-08-13T06:38:25.456Z,4.57
2023-08-13T06:40:52.403Z,3.88
2023-08-13T06:43:19.210Z,4.85
2023-08-13T06:45:47.293Z,3.78
2023-08-13T06:48:14.318Z,4.10
2023-08-13T06:50:41.212Z,4.68
2023-08-13T06:53:08.049Z,5.78
2023-08-13T06:55:34.783Z,5.55
2023-08-13T06:58:01.497Z,4.97
2023-08-13T07:00:38.424Z,4.68
2023-08-13T07:03:06.485Z,6.63
2023-08-13T07:05:33.369Z,6.57
2023-08-13T07:08:00.270Z,4.18
2023-08-13T07:10:27.073Z,6.15
2023-08-13T07:12:53.843Z,4.40
2023-08-13T07:15:20.551Z,6.80
2023-08-13T07:17:47.321Z,4.72
2023-08-13T07:20:15.541Z,5.47
2023-08-13T07:22:47.085Z,4.38
2023-08-13T07:25:14.576Z,4.47
2023-08-13T07:27:43.508Z,5.55
2023-08-13T07:30:12.170Z,5.22
2023-08-13T07:32:44.275Z,4.82
2023-08-13T07:35:14.290Z,6.90
2023-08-13T07:37:41.327Z,6.18
2023-08-13T07:40:09.322Z,5.22
2023-08-13T07:42:38.476Z,4.75
2023-08-13T07:45:07.426Z,5.68
2023-08-13T07:47:37.530Z,3.90
2023-08-13T07:50:05.919Z,5.40
2023-08-13T07:52:35.322Z,6.35
2023-08-13T07:55:03.430Z,6.80
2023-08-13T07:57:32.000Z,5.13
2023-08-13T07:59:59.056Z,5.05
2023-08-13T08:02:25.863Z,5.05
2023-08-13T08:04:52.928Z,8.57
2023-08-13T08:07:20.064Z,4.47
2023-08-13T08:09:46.853Z,7.07
2023-08-13T08:12:14.008Z,5.50
2023-08-13T08:14:41.160Z,4.45
2023-08-13T08:17:08.823Z,5.88
2023-08-13T08:19:35.653Z,6.13
2023-08-13T08:22:02.406Z,7.78
2023-08-13T08:24:29.364Z,5.40
2023-08-13T08:26:56.112Z,4.63
2023-08-13T08:29:22.897Z,7.00
2023-08-13T08:31:49.686Z,5.30
2023-08-13T08:34:16.626Z,4.28
2023-08-13T08:36:43.496Z,4.70
2023-08-13T08:39:10.326Z,5.05
2023-08-13T08:41:37.902Z,5.90
2023-08-13T08:44:08.582Z,4.30
2023-08-13T08:46:38.103Z,5.05
2023-08-13T08:51:32.785Z,6.43
2023-08-13T08:54:00.272Z,5.32
2023-08-13T08:56:27.420Z,5.30
2023-08-13T08:58:54.325Z,4.97
2023-08-13T09:01:21.128Z,4.13
2023-08-13T09:03:48.006Z,5.13
2023-08-13T09:06:22.016Z,4.82
2023-08-13T09:08:50.512Z,10.98
2023-08-13T09:11:19.412Z,3.78
2023-08-13T09:13:50.562Z,5.22
2023-08-13T09:16:17.990Z,7.97
2023-08-13T09:18:44.807Z,3.55
2023-08-13T09:21:11.597Z,4.63
2023-08-13T09:23:39.642Z,3.65
2023-08-13T09:26:06.589Z,5.57
2023-08-13T09:28:33.685Z,3.08
2023-08-13T09:31:01.205Z,4.95
2023-08-13T09:33:28.490Z,6.00
2023-08-13T09:35:55.342Z,4.03
2023-08-13T09:38:22.178Z,5.22
2023-08-13T09:40:49.240Z,4.47
2023-08-13T09:43:20.123Z,4.13
2023-08-13T09:45:48.884Z,3.40
2023-08-13T09:48:19.942Z,3.28
2023-08-13T09:50:50.206Z,3.42
2023-08-13T09:53:21.809Z,6.45
2023-08-13T09:55:55.782Z,6.20
2023-08-13T09:58:22.685Z,3.95
2023-08-13T10:00:50.999Z,3.22
2023-08-13T10:03:19.500Z,4.35
2023-08-13T10:05:46.931Z,3.78
2023-08-13T10:08:13.887Z,2.67
2023-08-13T10:10:42.164Z,3.45
2023-08-13T10:13:09.010Z,2.72
2023-08-13T10:15:37.461Z,2.95
2023-08-13T10:18:05.280Z,4.22
2023-08-13T10:20:32.067Z,3.30
2023-08-13T10:23:02.511Z,2.38
2023-08-13T10:25:35.773Z,5.80
2023-08-13T10:28:38.121Z,3.55
2023-08-13T10:31:40.600Z,2.50
2023-08-13T10:34:14.162Z,2.80
2023-08-13T10:36:55.263Z,2.72
2023-08-13T10:39:32.576Z,4.50
2023-08-13T10:41:59.555Z,3.55
2023-08-13T10:44:30.458Z,2.20
2023-08-13T10:46:58.533Z,3.45
2023-08-13T10:49:28.858Z,2.60
2023-08-13T10:52:01.530Z,3.72
2023-08-13T10:54:28.393Z,2.85
2023-08-13T10:56:59.642Z,2.63
2023-08-13T10:59:39.074Z,4.30
2023-08-13T11:04:54.566Z,5.57
2023-08-13T11:07:22.152Z,3.25
2023-08-13T11:09:49.943Z,2.83
2023-08-13T11:12:17.048Z,3.08
2023-08-13T11:14:44.118Z,3.80
2023-08-13T11:17:10.939Z,5.40
2023-08-13T11:19:37.661Z,2.38
2023-08-13T11:22:05.156Z,2.72
2023-08-13T11:24:35.453Z,4.38
2023-08-13T11:27:04.731Z,3.70
2023-08-13T11:29:32.155Z,2.22
2023-08-13T11:31:59.400Z,2.65
2023-08-13T11:34:26.182Z,2.90
2023-08-13T11:36:53.497Z,2.00
2023-08-13T11:39:21.143Z,3.92
2023-08-13T11:41:47.908Z,3.05
2023-08-13T11:44:14.734Z,3.15
2023-08-13T11:46:55.138Z,1.92
2023-08-13T11:49:22.233Z,2.92
2023-08-13T11:51:50.184Z,1.83
2023-08-13T11:54:20.655Z,2.80
2023-08-13T11:56:51.744Z,2.78
2023-08-13T11:59:23.883Z,2.72
2023-08-13T12:01:53.784Z,2.95
2023-08-13T12:04:22.613Z,3.13
2023-08-13T12:06:53.112Z,3.08
2023-08-13T12:09:20.377Z,3.25
2023-08-13T12:11:47.364Z,4.65
2023-08-13T12:14:14.213Z,6.90
2023-08-13T12:16:40.994Z,2.28
2023-08-13T12:19:08.149Z,3.30
2023-08-13T12:21:36.358Z,3.65
2023-08-13T12:24:07.204Z,2.30
2023-08-13T12:26:34.185Z,5.80
2023-08-13T12:29:01.256Z,3.47
2023-08-13T12:31:28.266Z,4.10
2023-08-13T12:33:55.279Z,2.15
2023-08-13T12:36:22.224Z,4.22
2023-08-13T12:38:49.333Z,2.28
2023-08-13T12:41:19.062Z,3.55
2023-08-13T12:43:51.160Z,2.67
2023-08-13T12:46:17.869Z,3.15
2023-08-13T12:48:44.771Z,2.63
2023-08-13T12:51:11.714Z,6.00
2023-08-13T12:53:39.798Z,3.67
2023-08-13T12:56:06.638Z,3.47
2023-08-13T12:58:34.300Z,3.20
2023-08-13T13:01:01.564Z,3.28
2023-08-13T13:03:29.873Z,2.15
2023-08-13T13:05:57.030Z,5.63
2023-08-13T13:08:25.977Z,2.75
2023-08-13T13:10:54.258Z,3.03
2023-08-13T13:13:21.213Z,2.67
2023-08-13T13:15:48.103Z,2.83
2023-08-13T13:18:14.958Z,3.85
2023-08-13T13:20:41.721Z,2.00
2023-08-13T13:23:08.564Z,4.68
2023-08-13T13:25:35.587Z,2.75
2023-08-13T13:28:02.451Z,3.50
2023-08-13T13:30:33.639Z,3.47
2023-08-13T13:33:05.916Z,2.28
2023-08-13T13:35:32.908Z,2.40
2023-08-13T13:37:59.644Z,4.68
2023-08-13T13:40:27.117Z,4.30
2023-08-13T13:42:55.954Z,6.05
2023-08-13T13:45:23.865Z,2.65
2023-08-13T13:47:50.887Z,2.60
2023-08-13T13:50:18.494Z,4.72
2023-08-13T13:52:45.694Z,3.58
2023-08-13T13:55:12.441Z,3.38
2023-08-13T13:57:39.230Z,3.53
2023-08-13T14:00:09.527Z,3.40
2023-08-13T14:02:36.536Z,2.40
2023-08-13T14:05:04.138Z,2.67
2023-08-13T14:07:31.197Z,4.88
2023-08-13T14:09:58.215Z,4.43
2023-08-13T14:12:24.982Z,2.95
2023-08-13T14:14:51.760Z,2.03
2023-08-13T14:17:18.659Z,2.22
2023-08-13T14:19:45.481Z,3.90
2023-08-13T14:22:12.329Z,2.28
2023-08-13T14:24:39.207Z,3.30
2023-08-13T14:27:06.096Z,2.60
2023-08-13T14:29:33.294Z,4.43
2023-08-13T14:32:00.048Z,3.53
2023-08-13T14:34:27.053Z,2.10
2023-08-13T14:36:54.017Z,2.20
2023-08-13T14:39:20.781Z,2.08
2023-08-13T14:41:47.739Z,3.55
2023-08-13T14:44:14.497Z,3.90
2023-08-13T14:46:41.308Z,3.45
2023-08-13T14:49:08.037Z,6.72
2023-08-13T14:51:34.884Z,2.15
2023-08-13T14:54:02.051Z,2.72
2023-08-13T14:56:28.888Z,3.58
2023-08-13T14:58:55.587Z,2.65
2023-08-13T15:01:22.326Z,3.58
2023-08-13T15:03:49.286Z,3.15
2023-08-13T15:06:16.645Z,2.72
2023-08-13T15:08:44.839Z,3.20
2023-08-13T15:11:11.761Z,4.00
2023-08-13T15:13:38.541Z,3.28
2023-08-13T15:16:05.428Z,3.17
2023-08-13T15:18:32.206Z,3.33
2023-08-13T15:20:58.976Z,2.20
2023-08-13T15:23:26.046Z,5.03
2023-08-13T15:25:56.483Z,3.95
2023-08-13T15:28:23.880Z,2.83
2023-08-13T15:30:58.354Z,2.72
2023-08-13T15:33:25.640Z,3.72
2023-08-13T15:35:55.324Z,2.60
2023-08-13T15:38:25.613Z,5.43
2023-08-13T15:40:52.544Z,2.03
2023-08-13T15:43:19.299Z,2.28
2023-08-13T15:45:46.199Z,3.17
2023-08-13T15:48:13.108Z,4.10
2023-08-13T15:50:40.024Z,7.03
2023-08-13T15:53:06.768Z,6.18
2023-08-13T15:55:33.551Z,2.90
2023-08-13T15:58:00.353Z,1.90
2023-08-13T16:00:27.177Z,2.38
2023-08-13T16:02:54.480Z,3.08
2023-08-13T16:05:21.310Z,3.25
2023-08-13T16:07:48.700Z,2.65
2023-08-13T16:10:15.752Z,2.53
2023-08-13T16:12:42.640Z,2.83
2023-08-13T16:15:11.474Z,2.53
2023-08-13T16:17:45.833Z,3.38
2023-08-13T16:20:14.318Z,2.50
2023-08-13T16:22:43.549Z,4.20
2023-08-13T16:25:10.997Z,3.75
2023-08-13T16:27:38.053Z,4.80
2023-08-13T16:30:05.842Z,3.40
2023-08-13T16:32:33.578Z,2.30
2023-08-13T16:35:00.992Z,3.75
2023-08-13T16:37:27.740Z,7.05
2023-08-13T16:39:54.598Z,3.25
2023-08-13T16:42:21.465Z,9.35
2023-08-13T16:44:48.510Z,2.10
2023-08-13T16:47:16.667Z,2.28
2023-08-13T16:49:43.817Z,2.20
2023-08-13T16:52:10.564Z,3.58
2023-08-13T16:54:37.222Z,2.55
2023-08-13T16:57:04.007Z,4.25
2023-08-13T16:59:30.736Z,6.28
2023-08-13T17:01:57.510Z,2.17
2023-08-13T17:04:24.284Z,3.55
2023-08-13T17:06:51.028Z,2.47
2023-08-13T17:09:17.871Z,2.22
2023-08-13T17:11:44.686Z,2.15
2023-08-13T17:14:11.563Z,2.63
2023-08-13T17:16:38.391Z,2.90
2023-08-13T17:19:05.203Z,3.40
2023-08-13T17:21:31.943Z,2.58
2023-08-13T17:23:59.096Z,2.42
2023-08-13T17:26:26.589Z,3.50
2023-08-13T17:28:53.927Z,3.30
2023-08-13T17:31:20.655Z,4.10
2023-08-13T17:33:47.456Z,7.30
2023-08-13T17:36:14.185Z,6.03
2023-08-13T17:38:41.244Z,6.10
2023-08-13T17:41:08.063Z,7.32
2023-08-13T17:43:35.018Z,5.90
2023-08-13T17:46:01.817Z,6.80
2023-08-13T17:48:28.892Z,10.45
2023-08-13T17:50:55.774Z,4.47
2023-08-13T17:53:23.105Z,6.63
2023-08-13T17:55:49.879Z,8.38
2023-08-13T17:58:16.655Z,8.68
2023-08-13T18:00:43.470Z,5.05
2023-08-13T18:03:10.350Z,4.03
2023-08-13T18:05:37.539Z,4.72
2023-08-13T18:08:15.413Z,6.15
2023-08-13T18:10:43.570Z,4.63
2023-08-13T18:13:10.467Z,4.78
2023-08-13T18:15:37.231Z,4.20
2023-08-13T18:18:07.016Z,5.38
2023-08-13T18:20:33.911Z,6.03
2023-08-13T18:23:00.677Z,11.43
2023-08-13T18:25:27.416Z,17.95
2023-08-13T18:27:54.149Z,20.00
2023-08-13T18:30:20.912Z,27.50
2023-08-13T18:32:48.197Z,41.75
2023-08-13T18:35:15.264Z,22.58
2023-08-13T18:37:42.026Z,8.43
2023-08-13T18:40:12.072Z,6.28
2023-08-13T18:42:45.357Z,5.22
2023-08-13T18:45:13.294Z,6.30
2023-08-13T18:47:40.173Z,4.13
2023-08-13T18:50:07.681Z,4.88
2023-08-13T18:52:34.523Z,3.85
2023-08-13T18:55:01.283Z,3.30
2023-08-13T18:57:28.036Z,4.85
2023-08-13T18:59:54.890Z,4.85
2023-08-13T19:02:21.691Z,5.45
2023-08-13T19:04:48.530Z,4.70
2023-08-13T19:07:15.456Z,2.95
2023-08-13T19:09:42.326Z,3.13
2023-08-13T19:12:09.278Z,4.20
2023-08-13T19:14:36.193Z,5.13
2023-08-13T19:17:03.004Z,4.53
2023-08-13T19:19:29.864Z,4.03
2023-08-13T19:21:56.586Z,3.92
2023-08-13T19:24:23.408Z,4.72
2023-08-13T19:26:50.185Z,4.47
2023-08-13T19:29:16.934Z,3.38
2023-08-13T19:31:43.698Z,4.10
2023-08-13T19:34:10.517Z,4.05
2023-08-13T19:36:37.199Z,4.10
2023-08-13T19:39:05.538Z,5.30
2023-08-13T19:41:32.278Z,3.55
2023-08-13T19:43:58.957Z,10.00
2023-08-13T19:46:25.879Z,4.15
2023-08-13T19:48:52.685Z,7.15
2023-08-13T19:51:19.520Z,6.35
2023-08-13T19:53:46.531Z,3.00
2023-08-13T19:56:13.322Z,6.65
2023-08-13T19:58:40.147Z,5.00
2023-08-13T20:01:07.466Z,5.78
2023-08-13T20:03:34.409Z,7.38
2023-08-13T20:06:01.273Z,3.55
2023-08-13T20:08:28.103Z,5.22
2023-08-13T20:10:54.940Z,2.90
2023-08-13T20:13:21.755Z,4.35
2023-08-13T20:15:49.207Z,3.38
2023-08-13T20:18:16.233Z,4.55
2023-08-13T20:20:42.951Z,3.58
2023-08-13T20:23:09.727Z,4.03
2023-08-13T20:25:37.005Z,5.43
2023-08-13T20:28:04.092Z,4.28
2023-08-13T20:30:30.896Z,5.25
2023-08-13T20:32:57.817Z,5.38
2023-08-13T20:35:24.652Z,3.63
2023-08-13T20:37:51.491Z,3.35
2023-08-13T20:40:18.265Z,9.15
2023-08-13T20:42:46.118Z,4.07
2023-08-13T20:45:12.957Z,4.90
2023-08-13T20:47:40.034Z,3.60
2023-08-13T20:50:17.858Z,5.78
2023-08-13T20:52:45.526Z,3.22
2023-08-13T20:55:12.361Z,6.95
2023-08-13T20:57:39.121Z,4.47
2023-08-13T21:00:07.681Z,3.97
2023-08-13T21:02:34.524Z,3.70
2023-08-13T21:05:01.275Z,4.95
2023-08-13T21:07:28.101Z,6.78
2023-08-13T21:09:54.843Z,5.45
2023-08-13T21:12:21.591Z,4.25
2023-08-13T21:14:48.290Z,4.43
2023-08-13T21:17:15.180Z,4.97
2023-08-13T21:19:42.235Z,5.60
2023-08-13T21:22:08.945Z,4.60
2023-08-13T21:24:35.702Z,3.53
2023-08-13T21:27:02.477Z,4.80
2023-08-13T21:29:29.249Z,4.53
2023-08-13T21:31:57.316Z,4.80
2023-08-13T21:34:24.153Z,4.20
2023-08-13T21:36:50.883Z,4.90
2023-08-13T21:39:18.120Z,4.38
2023-08-13T21:41:44.926Z,3.40
2023-08-13T21:44:11.646Z,7.03
2023-08-13T21:46:38.469Z,6.22
2023-08-13T21:49:05.254Z,15.98
2023-08-13T21:51:31.989Z,9.98
2023-08-13T21:53:58.827Z,7.20
2023-08-13T21:56:25.859Z,11.25
2023-08-13T21:58:52.565Z,6.10
2023-08-13T22:01:20.024Z,8.55
2023-08-13T22:03:46.933Z,7.00
2023-08-13T22:06:13.823Z,5.60
2023-08-13T22:08:40.620Z,7.03
2023-08-13T22:11:07.582Z,3.95
2023-08-13T22:13:34.380Z,4.25
2023-08-13T22:16:01.142Z,5.22
2023-08-13T22:18:28.566Z,4.22
2023-08-13T22:20:55.355Z,5.25
2023-08-13T22:23:22.095Z,5.00
2023-08-13T22:25:48.840Z,4.15
2023-08-13T22:28:15.580Z,4.20
2023-08-13T22:30:42.297Z,4.60
2023-08-13T22:33:09.102Z,4.65
2023-08-13T22:35:35.828Z,5.85
2023-08-13T22:38:04.456Z,4.53
2023-08-13T22:40:31.273Z,7.22
2023-08-13T22:42:58.014Z,4.20
2023-08-13T22:45:25.038Z,7.90
2023-08-13T22:47:51.899Z,4.57
2023-08-13T22:50:18.839Z,6.30
2023-08-13T22:52:45.613Z,4.40
2023-08-13T22:55:12.441Z,5.07
2023-08-13T22:57:39.498Z,4.18
2023-08-13T23:00:08.399Z,4.97
2023-08-13T23:02:35.541Z,5.53
2023-08-13T23:05:02.505Z,6.88
2023-08-13T23:07:29.202Z,4.78
2023-08-13T23:09:56.194Z,6.80
2023-08-13T23:12:23.008Z,4.40
2023-08-13T23:14:49.872Z,7.72
2023-08-13T23:17:16.887Z,4.80
2023-08-13T23:19:44.222Z,5.07
2023-08-13T23:22:11.074Z,5.00
2023-08-13T23:24:37.887Z,4.55
2023-08-13T23:27:05.255Z,4.72
2023-08-13T23:29:32.121Z,6.93
2023-08-13T23:31:58.980Z,8.70
2023-08-13T23:34:27.880Z,4.38
2023-08-13T23:36:54.742Z,4.72
2023-08-13T23:39:21.609Z,4.43
2023-08-13T23:41:52.070Z,4.28
2023-08-13T23:44:19.012Z,5.07
2023-08-13T23:46:45.868Z,5.18
2023-08-13T23:49:12.642Z,5.75
2023-08-13T23:51:39.551Z,5.30
2023-08-13T23:54:06.387Z,4.72
2023-08-13T23:56:33.194Z,9.13
2023-08-13T23:58:59.978Z,5.88
